sensor_id;sensor_type;location;lat;lon;timestamp;pressure;altitude;pressure_sealevel;temperature;humidity
32851;BME280;19202;48.992;8.390;2022-12-07T00:01:51;100585.38;;;6.83;87.87
32851;BME280;19202;48.992;8.390;2022-12-07T00:07:29;100583.50;;;6.90;87.93
32851;BME280;19202;48.992;8.390;2022-12-07T00:13:07;100580.25;;;6.76;88.84
32851;BME280;19202;48.992;8.390;2022-12-07T00:18:45;100574.06;;;6.77;88.67
32851;BME280;19202;48.992;8.390;2022-12-07T00:24:24;100575.84;;;6.76;88.39
32851;BME280;19202;48.992;8.390;2022-12-07T00:30:02;100567.88;;;6.81;88.59
32851;BME280;19202;48.992;8.390;2022-12-07T00:35:40;100586.31;;;6.79;88.67
32851;BME280;19202;48.992;8.390;2022-12-07T00:41:21;100584.50;;;6.83;88.35
32851;BME280;19202;48.992;8.390;2022-12-07T00:46:59;100587.13;;;6.83;88.30
32851;BME280;19202;48.992;8.390;2022-12-07T00:52:37;100587.22;;;6.77;89.02
32851;BME280;19202;48.992;8.390;2022-12-07T00:58:15;100579.59;;;6.62;90.25
32851;BME280;19202;48.992;8.390;2022-12-07T01:03:54;100572.69;;;6.55;90.30
32851;BME280;19202;48.992;8.390;2022-12-07T01:09:32;100567.31;;;6.62;90.17
32851;BME280;19202;48.992;8.390;2022-12-07T01:15:10;100562.81;;;6.69;89.51
32851;BME280;19202;48.992;8.390;2022-12-07T01:20:57;100566.47;;;6.62;89.67
32851;BME280;19202;48.992;8.390;2022-12-07T01:26:35;100576.16;;;6.57;90.32
32851;BME280;19202;48.992;8.390;2022-12-07T01:32:13;100578.97;;;6.45;91.82
32851;BME280;19202;48.992;8.390;2022-12-07T01:37:51;100568.56;;;6.39;92.33
32851;BME280;19202;48.992;8.390;2022-12-07T01:43:31;100573.78;;;6.42;92.12
32851;BME280;19202;48.992;8.390;2022-12-07T01:49:14;100574.63;;;6.42;92.25
32851;BME280;19202;48.992;8.390;2022-12-07T01:54:57;100571.13;;;6.43;91.83
32851;BME280;19202;48.992;8.390;2022-12-07T02:00:36;100572.84;;;6.44;91.55
32851;BME280;19202;48.992;8.390;2022-12-07T02:06:17;100573.78;;;6.42;92.04
32851;BME280;19202;48.992;8.390;2022-12-07T02:11:57;100567.56;;;6.47;91.21
32851;BME280;19202;48.992;8.390;2022-12-07T02:17:51;100563.28;;;6.40;91.63
32851;BME280;19202;48.992;8.390;2022-12-07T02:41:27;100563.56;;;6.24;93.36
32851;BME280;19202;48.992;8.390;2022-12-07T02:47:09;100577.38;;;6.35;92.63
32851;BME280;19202;48.992;8.390;2022-12-07T02:52:48;100556.53;;;6.23;93.30
32851;BME280;19202;48.992;8.390;2022-12-07T02:58:48;100546.09;;;6.18;93.94
32851;BME280;19202;48.992;8.390;2022-12-07T03:04:45;100559.19;;;6.21;93.81
32851;BME280;19202;48.992;8.390;2022-12-07T03:10:35;100537.47;;;6.10;95.01
32851;BME280;19202;48.992;8.390;2022-12-07T03:22:02;100514.94;;;5.95;96.15
32851;BME280;19202;48.992;8.390;2022-12-07T03:27:51;100507.94;;;5.94;95.53
32851;BME280;19202;48.992;8.390;2022-12-07T03:33:40;100516.94;;;5.75;96.97
32851;BME280;19202;48.992;8.390;2022-12-07T03:39:52;100528.19;;;5.86;96.28
32851;BME280;19202;48.992;8.390;2022-12-07T03:45:39;100532.56;;;5.83;95.78
32851;BME280;19202;48.992;8.390;2022-12-07T03:51:30;100537.84;;;5.81;95.14
32851;BME280;19202;48.992;8.390;2022-12-07T03:57:11;100537.84;;;5.80;94.73
32851;BME280;19202;48.992;8.390;2022-12-07T04:02:53;100530.94;;;5.74;95.20
32851;BME280;19202;48.992;8.390;2022-12-07T04:08:32;100529.28;;;5.67;95.47
32851;BME280;19202;48.992;8.390;2022-12-07T04:14:10;100531.00;;;5.68;95.47
32851;BME280;19202;48.992;8.390;2022-12-07T04:19:57;100525.59;;;5.80;94.75
32851;BME280;19202;48.992;8.390;2022-12-07T04:25:34;100531.91;;;5.69;96.19
32851;BME280;19202;48.992;8.390;2022-12-07T04:31:12;100522.19;;;5.75;95.63
32851;BME280;19202;48.992;8.390;2022-12-07T04:36:50;100513.47;;;5.73;95.47
32851;BME280;19202;48.992;8.390;2022-12-07T04:42:28;100524.81;;;5.75;95.45
32851;BME280;19202;48.992;8.390;2022-12-07T04:48:06;100523.81;;;5.82;95.01
32851;BME280;19202;48.992;8.390;2022-12-07T04:53:44;100519.47;;;5.80;94.63
32851;BME280;19202;48.992;8.390;2022-12-07T04:59:21;100518.63;;;5.79;94.43
32851;BME280;19202;48.992;8.390;2022-12-07T05:04:59;100517.84;;;5.73;94.82
32851;BME280;19202;48.992;8.390;2022-12-07T05:10:37;100518.56;;;5.82;94.34
32851;BME280;19202;48.992;8.390;2022-12-07T05:16:16;100521.19;;;5.84;94.51
32851;BME280;19202;48.992;8.390;2022-12-07T05:21:54;100520.34;;;5.83;94.01
32851;BME280;19202;48.992;8.390;2022-12-07T05:27:31;100509.94;;;5.74;94.07
32851;BME280;19202;48.992;8.390;2022-12-07T05:33:09;100520.34;;;5.80;93.59
32851;BME280;19202;48.992;8.390;2022-12-07T05:38:47;100529.03;;;5.88;92.94
32851;BME280;19202;48.992;8.390;2022-12-07T05:44:25;100520.28;;;5.89;92.19
32851;BME280;19202;48.992;8.390;2022-12-07T05:50:04;100508.03;;;5.88;92.25
32851;BME280;19202;48.992;8.390;2022-12-07T05:55:43;100515.09;;;5.80;92.43
32851;BME280;19202;48.992;8.390;2022-12-07T06:01:21;100515.22;;;5.70;93.18
32851;BME280;19202;48.992;8.390;2022-12-07T06:06:59;100516.22;;;5.63;93.71
32851;BME280;19202;48.992;8.390;2022-12-07T06:12:36;100519.66;;;5.66;93.84
32851;BME280;19202;48.992;8.390;2022-12-07T06:18:17;100526.63;;;5.70;93.79
32851;BME280;19202;48.992;8.390;2022-12-07T06:23:55;100520.41;;;5.77;92.74
32851;BME280;19202;48.992;8.390;2022-12-07T06:29:33;100529.25;;;5.70;93.09
32851;BME280;19202;48.992;8.390;2022-12-07T06:35:11;100525.69;;;5.74;92.56
32851;BME280;19202;48.992;8.390;2022-12-07T06:40:49;100525.81;;;5.65;92.30
32851;BME280;19202;48.992;8.390;2022-12-07T06:46:27;100529.31;;;5.64;91.66
32851;BME280;19202;48.992;8.390;2022-12-07T06:52:05;100523.19;;;5.64;91.62
32851;BME280;19202;48.992;8.390;2022-12-07T06:57:43;100520.50;;;5.68;91.47
32851;BME280;19202;48.992;8.390;2022-12-07T07:03:21;100521.53;;;5.58;91.69
32851;BME280;19202;48.992;8.390;2022-12-07T07:08:59;100524.22;;;5.52;92.30
32851;BME280;19202;48.992;8.390;2022-12-07T07:14:37;100526.66;;;5.67;91.89
32851;BME280;19202;48.992;8.390;2022-12-07T07:20:15;100524.13;;;5.61;91.37
32851;BME280;19202;48.992;8.390;2022-12-07T07:25:53;100528.53;;;5.56;91.24
32851;BME280;19202;48.992;8.390;2022-12-07T07:31:31;100536.41;;;5.56;90.61
32851;BME280;19202;48.992;8.390;2022-12-07T07:37:09;100534.69;;;5.55;89.96
32851;BME280;19202;48.992;8.390;2022-12-07T07:42:52;100539.03;;;5.56;89.71
32851;BME280;19202;48.992;8.390;2022-12-07T07:48:30;100545.28;;;5.46;89.78
32851;BME280;19202;48.992;8.390;2022-12-07T07:54:08;100546.22;;;5.42;89.85
32851;BME280;19202;48.992;8.390;2022-12-07T07:59:46;100553.06;;;5.54;89.36
32851;BME280;19202;48.992;8.390;2022-12-07T08:05:24;100549.59;;;5.52;88.98
32851;BME280;19202;48.992;8.390;2022-12-07T08:11:05;100550.47;;;5.52;88.94
32851;BME280;19202;48.992;8.390;2022-12-07T08:16:43;100553.91;;;5.57;87.20
32851;BME280;19202;48.992;8.390;2022-12-07T08:22:21;100571.28;;;5.67;86.50
32851;BME280;19202;48.992;8.390;2022-12-07T08:27:59;100568.66;;;5.69;85.48
32851;BME280;19202;48.992;8.390;2022-12-07T08:33:38;100570.38;;;5.71;85.64
32851;BME280;19202;48.992;8.390;2022-12-07T08:39:17;100573.75;;;5.78;84.90
32851;BME280;19202;48.992;8.390;2022-12-07T08:44:56;100575.44;;;5.86;84.31
32851;BME280;19202;48.992;8.390;2022-12-07T08:50:36;100571.00;;;5.93;83.38
32851;BME280;19202;48.992;8.390;2022-12-07T08:56:15;100577.06;;;5.96;83.86
32851;BME280;19202;48.992;8.390;2022-12-07T09:01:53;100576.28;;;5.88;83.21
32851;BME280;19202;48.992;8.390;2022-12-07T09:07:35;100578.97;;;5.82;83.15
32851;BME280;19202;48.992;8.390;2022-12-07T09:13:14;100570.13;;;5.91;83.20
32851;BME280;19202;48.992;8.390;2022-12-07T09:18:53;100574.25;;;6.12;81.90
32851;BME280;19202;48.992;8.390;2022-12-07T09:24:31;100568.22;;;6.04;81.88
32851;BME280;19202;48.992;8.390;2022-12-07T09:30:10;100580.41;;;6.09;81.86
32851;BME280;19202;48.992;8.390;2022-12-07T09:35:49;100571.59;;;6.13;81.35
32851;BME280;19202;48.992;8.390;2022-12-07T09:41:30;100575.75;;;6.26;79.81
32851;BME280;19202;48.992;8.390;2022-12-07T09:47:09;100577.47;;;6.29;79.25
32851;BME280;19202;48.992;8.390;2022-12-07T09:52:49;100571.28;;;6.33;78.46
32851;BME280;19202;48.992;8.390;2022-12-07T09:58:28;100574.53;;;6.50;78.60
32851;BME280;19202;48.992;8.390;2022-12-07T10:04:14;100568.34;;;6.54;76.89
32851;BME280;19202;48.992;8.390;2022-12-07T10:09:53;100559.66;;;6.49;76.12
32851;BME280;19202;48.992;8.390;2022-12-07T10:21:26;100547.97;;;6.66;76.24
32851;BME280;19202;48.992;8.390;2022-12-07T10:27:17;100552.56;;;6.52;76.28
32851;BME280;19202;48.992;8.390;2022-12-07T10:32:55;100551.47;;;6.67;76.46
32851;BME280;19202;48.992;8.390;2022-12-07T10:38:37;100539.69;;;6.89;75.00
32851;BME280;19202;48.992;8.390;2022-12-07T10:44:24;100541.78;;;6.69;74.53
32851;BME280;19202;48.992;8.390;2022-12-07T10:50:13;100542.91;;;6.56;75.41
32851;BME280;19202;48.992;8.390;2022-12-07T11:20:25;100492.84;;;6.62;76.13
32851;BME280;19202;48.992;8.390;2022-12-07T11:26:16;100492.63;;;6.74;76.58
32851;BME280;19202;48.992;8.390;2022-12-07T11:32:11;100489.06;;;6.78;76.42
32851;BME280;19202;48.992;8.390;2022-12-07T11:37:57;100496.75;;;6.87;76.44
32851;BME280;19202;48.992;8.390;2022-12-07T11:43:37;100489.78;;;6.84;77.51
32851;BME280;19202;48.992;8.390;2022-12-07T12:01:26;100464.00;;;7.03;77.47
32851;BME280;19202;48.992;8.390;2022-12-07T12:07:06;100464.00;;;7.03;77.83
32851;BME280;19202;48.992;8.390;2022-12-07T12:13:02;100462.88;;;7.15;77.50
32851;BME280;19202;48.992;8.390;2022-12-07T12:24:26;100449.91;;;7.07;78.67
32851;BME280;19202;48.992;8.390;2022-12-07T12:30:24;100442.91;;;7.06;79.03
32851;BME280;19202;48.992;8.390;2022-12-07T12:41:55;100437.84;;;6.96;79.39
32851;BME280;19202;48.992;8.390;2022-12-07T12:47:51;100436.69;;;7.10;79.11
32851;BME280;19202;48.992;8.390;2022-12-07T12:53:30;100433.81;;;7.22;78.60
32851;BME280;19202;48.992;8.390;2022-12-07T13:10:45;100419.19;;;7.08;79.63
32851;BME280;19202;48.992;8.390;2022-12-07T13:16:44;100413.28;;;6.98;80.34
32851;BME280;19202;48.992;8.390;2022-12-07T13:28:19;100397.47;;;6.98;80.51
32851;BME280;19202;48.992;8.390;2022-12-07T13:33:59;100406.47;;;6.88;81.32
32851;BME280;19202;48.992;8.390;2022-12-07T13:39:46;100399.66;;;6.78;81.72
32851;BME280;19202;48.992;8.390;2022-12-07T13:45:28;100395.88;;;6.91;81.54
32851;BME280;19202;48.992;8.390;2022-12-07T13:51:27;100388.75;;;6.95;81.04
32851;BME280;19202;48.992;8.390;2022-12-07T13:57:06;100384.47;;;6.91;81.72
32851;BME280;19202;48.992;8.390;2022-12-07T14:03:20;100386.25;;;6.90;81.59
32851;BME280;19202;48.992;8.390;2022-12-07T14:09:18;100386.22;;;6.92;81.02
32851;BME280;19202;48.992;8.390;2022-12-07T14:14:58;100385.34;;;6.91;80.80
32851;BME280;19202;48.992;8.390;2022-12-07T14:20:39;100394.16;;;6.89;80.80
32851;BME280;19202;48.992;8.390;2022-12-07T14:26:20;100384.59;;;6.84;80.56
32851;BME280;19202;48.992;8.390;2022-12-07T14:32:45;100391.75;;;6.78;80.62
32851;BME280;19202;48.992;8.390;2022-12-07T14:38:16;100388.34;;;6.73;79.88
32851;BME280;19202;48.992;8.390;2022-12-07T14:43:56;100389.06;;;6.81;79.85
32851;BME280;19202;48.992;8.390;2022-12-07T14:49:33;100393.59;;;6.73;79.86
32851;BME280;19202;48.992;8.390;2022-12-07T14:55:31;100395.97;;;6.85;79.73
32851;BME280;19202;48.992;8.390;2022-12-07T15:01:09;100388.03;;;6.88;78.93
32851;BME280;19202;48.992;8.390;2022-12-07T15:07:03;100392.28;;;6.95;78.91
32851;BME280;19202;48.992;8.390;2022-12-07T15:12:41;100385.28;;;6.94;78.65
32851;BME280;19202;48.992;8.390;2022-12-07T15:18:20;100392.19;;;7.00;78.35
32851;BME280;19202;48.992;8.390;2022-12-07T15:23:59;100387.88;;;6.96;78.46
32851;BME280;19202;48.992;8.390;2022-12-07T15:29:36;100380.16;;;6.88;78.72
32851;BME280;19202;48.992;8.390;2022-12-07T15:35:14;100387.34;;;6.80;79.07
32851;BME280;19202;48.992;8.390;2022-12-07T15:40:53;100382.19;;;6.74;79.73
32851;BME280;19202;48.992;8.390;2022-12-07T15:46:39;100387.63;;;6.65;80.40
32851;BME280;19202;48.992;8.390;2022-12-07T15:52:18;100367.50;;;6.62;80.46
32851;BME280;19202;48.992;8.390;2022-12-07T15:57:56;100369.13;;;6.69;80.27
32851;BME280;19202;48.992;8.390;2022-12-07T16:03:34;100359.59;;;6.64;81.05
32851;BME280;19202;48.992;8.390;2022-12-07T16:09:12;100347.38;;;6.61;80.87
32851;BME280;19202;48.992;8.390;2022-12-07T16:14:51;100339.53;;;6.58;81.04
32851;BME280;19202;48.992;8.390;2022-12-07T16:20:29;100338.69;;;6.58;80.75
32851;BME280;19202;48.992;8.390;2022-12-07T16:26:13;100330.03;;;6.53;80.83
32851;BME280;19202;48.992;8.390;2022-12-07T16:31:51;100344.13;;;6.49;80.88
32851;BME280;19202;48.992;8.390;2022-12-07T16:37:29;100351.41;;;6.35;81.21
32851;BME280;19202;48.992;8.390;2022-12-07T16:43:08;100346.97;;;6.37;81.67
32851;BME280;19202;48.992;8.390;2022-12-07T16:48:49;100342.56;;;6.39;81.87
32851;BME280;19202;48.992;8.390;2022-12-07T16:54:27;100330.38;;;6.35;82.09
32851;BME280;19202;48.992;8.390;2022-12-07T17:00:09;100326.88;;;6.36;82.08
32851;BME280;19202;48.992;8.390;2022-12-07T17:05:47;100320.78;;;6.32;82.55
32851;BME280;19202;48.992;8.390;2022-12-07T17:11:28;100319.22;;;6.22;83.34
32851;BME280;19202;48.992;8.390;2022-12-07T17:17:08;100319.16;;;6.27;82.79
32851;BME280;19202;48.992;8.390;2022-12-07T17:22:46;100306.69;;;6.36;82.48
32851;BME280;19202;48.992;8.390;2022-12-07T17:28:24;100299.78;;;6.31;82.23
32851;BME280;19202;48.992;8.390;2022-12-07T17:34:02;100296.28;;;6.30;82.42
32851;BME280;19202;48.992;8.390;2022-12-07T17:39:41;100296.22;;;6.35;82.61
32851;BME280;19202;48.992;8.390;2022-12-07T17:45:19;100294.53;;;6.31;82.70
32851;BME280;19202;48.992;8.390;2022-12-07T17:51:01;100275.56;;;6.17;83.37
32851;BME280;19202;48.992;8.390;2022-12-07T17:56:57;100278.97;;;6.22;83.25
32851;BME280;19202;48.992;8.390;2022-12-07T18:02:36;100283.16;;;6.32;82.70
32851;BME280;19202;48.992;8.390;2022-12-07T18:08:14;100281.28;;;6.37;82.54
32851;BME280;19202;48.992;8.390;2022-12-07T18:13:52;100270.66;;;6.43;82.21
32851;BME280;19202;48.992;8.390;2022-12-07T18:19:30;100284.69;;;6.42;82.00
32851;BME280;19202;48.992;8.390;2022-12-07T18:25:09;100277.66;;;6.44;81.80
32851;BME280;19202;48.992;8.390;2022-12-07T18:30:47;100272.47;;;6.39;82.18
32851;BME280;19202;48.992;8.390;2022-12-07T18:36:27;100265.50;;;6.37;82.38
32851;BME280;19202;48.992;8.390;2022-12-07T18:42:05;100267.56;;;6.23;82.72
32851;BME280;19202;48.992;8.390;2022-12-07T18:47:44;100268.53;;;6.17;82.96
32851;BME280;19202;48.992;8.390;2022-12-07T18:53:22;100268.63;;;6.13;83.36
32851;BME280;19202;48.992;8.390;2022-12-07T18:59:02;100262.50;;;6.14;83.31
32851;BME280;19202;48.992;8.390;2022-12-07T19:04:59;100262.53;;;6.11;83.46
32851;BME280;19202;48.992;8.390;2022-12-07T19:10:39;100271.47;;;6.01;83.98
32851;BME280;19202;48.992;8.390;2022-12-07T19:16:17;100271.66;;;5.91;84.45
32851;BME280;19202;48.992;8.390;2022-12-07T19:21:55;100271.69;;;5.88;84.36
32851;BME280;19202;48.992;8.390;2022-12-07T19:27:32;100273.50;;;5.86;84.65
32851;BME280;19202;48.992;8.390;2022-12-07T19:33:11;100274.47;;;5.78;85.25
32851;BME280;19202;48.992;8.390;2022-12-07T19:38:49;100264.81;;;5.81;85.25
32851;BME280;19202;48.992;8.390;2022-12-07T19:44:28;100262.94;;;5.89;84.44
32851;BME280;19202;48.992;8.390;2022-12-07T19:50:07;100267.38;;;5.86;84.30
32851;BME280;19202;48.992;8.390;2022-12-07T19:55:46;100259.59;;;5.78;84.32
32851;BME280;19202;48.992;8.390;2022-12-07T20:01:24;100248.38;;;5.70;84.40
32851;BME280;19202;48.992;8.390;2022-12-07T20:07:02;100245.91;;;5.61;84.82
32851;BME280;19202;48.992;8.390;2022-12-07T20:12:40;100253.06;;;5.53;84.88
32851;BME280;19202;48.992;8.390;2022-12-07T20:18:37;100256.72;;;5.43;85.33
32851;BME280;19202;48.992;8.390;2022-12-07T20:24:18;100245.41;;;5.38;85.98
32851;BME280;19202;48.992;8.390;2022-12-07T20:29:57;100230.78;;;5.25;86.70
32851;BME280;19202;48.992;8.390;2022-12-07T20:35:34;100235.25;;;5.19;86.63
32851;BME280;19202;48.992;8.390;2022-12-07T20:41:13;100238.75;;;5.19;86.61
32851;BME280;19202;48.992;8.390;2022-12-07T20:47:10;100223.88;;;5.18;86.31
32851;BME280;19202;48.992;8.390;2022-12-07T20:52:48;100222.28;;;5.11;86.44
32851;BME280;19202;48.992;8.390;2022-12-07T20:58:26;100214.56;;;5.00;86.94
32851;BME280;19202;48.992;8.390;2022-12-07T21:04:04;100205.06;;;4.92;87.67
32851;BME280;19202;48.992;8.390;2022-12-07T21:09:44;100206.81;;;4.93;87.20
32851;BME280;19202;48.992;8.390;2022-12-07T21:15:22;100200.56;;;5.00;86.66
32851;BME280;19202;48.992;8.390;2022-12-07T21:21:01;100210.16;;;5.02;86.32
32851;BME280;19202;48.992;8.390;2022-12-07T21:26:39;100217.22;;;4.97;86.75
32851;BME280;19202;48.992;8.390;2022-12-07T21:32:17;100224.19;;;5.00;86.35
32851;BME280;19202;48.992;8.390;2022-12-07T21:37:55;100228.63;;;4.93;86.67
32851;BME280;19202;48.992;8.390;2022-12-07T21:43:33;100203.38;;;4.88;86.96
32851;BME280;19202;48.992;8.390;2022-12-07T21:49:12;100210.66;;;4.71;88.16
32851;BME280;19202;48.992;8.390;2022-12-07T21:54:51;100207.16;;;4.70;88.15
32851;BME280;19202;48.992;8.390;2022-12-07T22:00:29;100198.47;;;4.67;87.72
32851;BME280;19202;48.992;8.390;2022-12-07T22:06:11;100202.03;;;4.61;87.77
32851;BME280;19202;48.992;8.390;2022-12-07T22:11:52;100198.50;;;4.64;87.44
32851;BME280;19202;48.992;8.390;2022-12-07T22:17:30;100203.03;;;4.51;88.13
32851;BME280;19202;48.992;8.390;2022-12-07T22:23:08;100207.44;;;4.51;88.39
32851;BME280;19202;48.992;8.390;2022-12-07T22:28:46;100195.19;;;4.53;88.72
32851;BME280;19202;48.992;8.390;2022-12-07T22:34:24;100190.66;;;4.62;88.36
32851;BME280;19202;48.992;8.390;2022-12-07T22:40:02;100181.16;;;4.57;88.43
32851;BME280;19202;48.992;8.390;2022-12-07T22:45:40;100181.47;;;4.34;90.38
32851;BME280;19202;48.992;8.390;2022-12-07T22:51:26;100184.97;;;4.32;90.31
32851;BME280;19202;48.992;8.390;2022-12-07T22:57:05;100188.41;;;4.37;90.35
32851;BME280;19202;48.992;8.390;2022-12-07T23:02:43;100171.91;;;4.30;90.12
32851;BME280;19202;48.992;8.390;2022-12-07T23:08:21;100166.72;;;4.25;89.76
32851;BME280;19202;48.992;8.390;2022-12-07T23:14:00;100167.72;;;4.15;90.73
32851;BME280;19202;48.992;8.390;2022-12-07T23:19:38;100153.88;;;4.07;91.10
32851;BME280;19202;48.992;8.390;2022-12-07T23:25:16;100151.28;;;4.06;90.86
32851;BME280;19202;48.992;8.390;2022-12-07T23:31:03;100146.91;;;4.06;90.66
32851;BME280;19202;48.992;8.390;2022-12-07T23:36:42;100141.78;;;3.97;90.94
32851;BME280;19202;48.992;8.390;2022-12-07T23:42:19;100128.69;;;3.97;90.77
32851;BME280;19202;48.992;8.390;2022-12-07T23:47:57;100130.34;;;4.03;90.41
32851;BME280;19202;48.992;8.390;2022-12-07T23:53:38;100133.81;;;4.06;90.12
32851;BME280;19202;48.992;8.390;2022-12-07T23:59:16;100122.53;;;4.01;89.94
